Datos. Málaga, Centro Meteorológico

Actualizado: sábado, 30 mayo 2015 a las 03:32 hora oficial
Ind. climatológico: 6156X -  Altitud (m): 54
Latitud36° 43' 4'' N - Longitud4° 28' 54'' O -  PosiciónVer localización
MunicipioMálaga (Málaga) - Ver predicción
Registros - de
Fecha y hora oficial

 

Temp. (°C)

 

V. vien. (km/h)

 

Dir. viento

 

Racha (km/h)

 

Dir. racha

 

Prec. (mm)

 

Presión (hPa)

 

Tend. (hPa)

 

Humedad (%)

 

30/05/2015 03:00 19.6 5 8-OesteOeste 8 8-OesteOeste 0.0 1009.6 0.0 90
30/05/2015 02:00 19.9 0 1-CalmaCalma 8 5-SudesteSudeste 0.0 1009.6 0.2 90
30/05/2015 01:00 20.5 5 6-SurSur 11 8-OesteOeste 0.0 1009.8 1.1 84
30/05/2015 00:00 20.5 7 9-NoroesteNoroeste 21 9-NoroesteNoroeste 0.0 1009.6 1.6 87
29/05/2015 23:00 20.4 8 8-OesteOeste 10 7-SudoesteSudoeste 0.0 1009.4 2.1 87
29/05/2015 22:00 20.6 6 5-SudesteSudeste 15 5-SudesteSudeste 0.0 1008.7 2.1 87
29/05/2015 21:00 21.1 10 5-SudesteSudeste 26 5-SudesteSudeste 0.0 1008.0 1.2 81
29/05/2015 20:00 22.5 17 5-SudesteSudeste 27 5-SudesteSudeste 0.0 1007.3 0.4 72
29/05/2015 19:00 24.0 16 4-EsteEste 35 4-EsteEste 0.0 1006.6 -0.5 62
29/05/2015 18:00 23.1 21 4-EsteEste 39 4-EsteEste 0.0 1006.8 -0.8 65
29/05/2015 17:00 24.1 18 4-EsteEste 30 5-SudesteSudeste 0.0 1006.9 -0.9 62
29/05/2015 16:00 27.5 15 5-SudesteSudeste 29 5-SudesteSudeste 0.0 1007.1 -1.1 44
29/05/2015 15:00 27.6 17 5-SudesteSudeste 32 5-SudesteSudeste 0.0 1007.6 -0.4 43
29/05/2015 14:00 27.8 13 5-SudesteSudeste 29 6-SurSur 0.0 1007.8 0.0 37
29/05/2015 13:00 27.7 16 6-SurSur 29 6-SurSur 0.0 1008.2 0.0 40
29/05/2015 12:00 28.1 6 6-SurSur 17 6-SurSur 0.0 1008.0 -0.3 37
29/05/2015 11:00 26.4 7 7-SudoesteSudoeste 13 7-SudoesteSudoeste 0.0 1007.8 -0.6 38
29/05/2015 10:00 24.3 3 3-NordesteNordeste 9 5-SudesteSudeste 0.0 1008.2 0.5 44
29/05/2015 09:00 22.7 3 3-NordesteNordeste 8 8-OesteOeste 0.0 1008.3 1.0 53
29/05/2015 08:00 20.3 4 3-NordesteNordeste 11 4-EsteEste 0.0 1008.4 1.6 56
29/05/2015 07:00 19.0 3 4-EsteEste 8 3-NordesteNordeste 0.0 1007.7 -0.1 59
29/05/2015 06:00 18.2 4 2-NorteNorte 18 8-OesteOeste 0.0 1007.3 -0.7 62
29/05/2015 05:00 19.7 8 9-NoroesteNoroeste 17 2-NorteNorte 0.0 1006.8 -2.0 56
29/05/2015 04:00 19.6 6 2-NorteNorte 14 8-OesteOeste 0.0 1007.8 -1.3 59
First Page First Page First Page Last Page
Lineas por página
Página   de  
Compartir:  
En esta página podrá acceder, en forma gráfica y en tabla, a las observaciones horarias de las últimas 24 horas, así como a los valores extremos y acumulados desde las 00 horas del día hasta la hora de actualización indicada, obtenidos en la red de estaciones de AEMET. También podrá acceder a los resúmenes diarios de estas estaciones en los últimos 7 días.

En el mapa aparecen estaciones con valor númerico y otras representadas por un punto. En las primeras, al pasar el ratón, aparece un desplegable con la información completa de la estación. Las estaciones representadas por un punto son estaciones de la red climatológica, con transmisión de datos superior a la hora, por lo que al seleccionarlas pueden no aparecer los últimos datos.

Los datos presentados han sido únicamente sometidos a controles automáticos de calidad en tiempo real, por lo que no puede garantizarse la ausencia de errores.
© AEMET. Autorizado el uso de la información y su reproducción citando a AEMET como autora de la misma.